Time,TemperatureF,DewpointF,PressureIn,WindDirection,WindDirectionDegrees,WindSpeedMPH,WindSpeedGustMPH,Humidity,HourlyPrecipIn,Conditions,Clouds,dailyrainin,SolarRadiationWatts/m^2,SoftwareType,DateUTC
2013-04-08 00:00:00,30.0,26.0,-100.00,East,90,0.0,-999.0,85,-99.99,,,-99.99,0.000000,,2013-04-08 04:00:00,
2013-04-08 00:44:00,30.0,26.0,-100.00,East,90,0.0,-999.0,85,-99.99,,,-99.99,0.000000,,2013-04-08 04:44:00,
2013-04-08 00:53:00,30.0,26.0,-100.00,East,90,0.0,-999.0,85,-99.99,,,-99.99,0.000000,,2013-04-08 04:53:00,
2013-04-08 01:00:00,31.0,26.0,-100.00,East,90,0.0,-999.0,82,-99.99,,,-99.99,0.000000,,2013-04-08 05:00:00,
2013-04-08 01:42:00,31.0,26.0,-100.00,East,90,0.0,-999.0,82,-99.99,,,-99.99,0.000000,,2013-04-08 05:42:00,
2013-04-08 01:53:00,31.0,26.0,-100.00,East,90,0.0,-999.0,82,-99.99,,,-99.99,0.000000,,2013-04-08 05:53:00,
2013-04-08 02:00:00,30.0,26.0,-100.00,ESE,112,0.0,-999.0,83,-99.99,,,-99.99,0.000000,,2013-04-08 06:00:00,
2013-04-08 02:43:00,30.0,26.0,-100.00,ESE,112,0.0,-999.0,83,-99.99,,,-99.99,0.000000,,2013-04-08 06:43:00,
2013-04-08 02:52:00,30.0,26.0,-100.00,ESE,112,0.0,-999.0,83,-99.99,,,-99.99,0.000000,,2013-04-08 06:52:00,
2013-04-08 04:00:00,31.0,26.0,-100.00,ESE,112,4.0,-999.0,83,-99.99,,,-99.99,0.000000,,2013-04-08 08:00:00,
2013-04-08 04:43:00,31.0,26.0,-100.00,ESE,112,4.0,-999.0,83,-99.99,,,-99.99,0.000000,,2013-04-08 08:43:00,
2013-04-08 04:52:00,31.0,26.0,-100.00,ESE,112,4.0,-999.0,83,-99.99,,,-99.99,0.000000,,2013-04-08 08:52:00,
2013-04-08 05:00:00,31.0,26.0,-100.00,East,90,8.0,-999.0,81,-99.99,,,-99.99,0.000000,,2013-04-08 09:00:00,
2013-04-08 05:43:00,31.0,26.0,-100.00,East,90,8.0,-999.0,81,-99.99,,,-99.99,0.000000,,2013-04-08 09:43:00,
2013-04-08 05:53:00,31.0,26.0,-100.00,East,90,8.0,-999.0,81,-99.99,,,-99.99,0.000000,,2013-04-08 09:53:00,
2013-04-08 06:00:00,31.0,26.0,-100.00,ESE,112,5.0,-999.0,81,-99.99,,,-99.99,0.000000,,2013-04-08 10:00:00,
2013-04-08 06:43:00,31.0,26.0,-100.00,ESE,112,5.0,-999.0,81,-99.99,,,-99.99,0.000000,,2013-04-08 10:43:00,
2013-04-08 06:53:00,31.0,26.0,-100.00,ESE,112,5.0,-999.0,81,-99.99,,,-99.99,0.000000,,2013-04-08 10:53:00,
2013-04-08 07:00:00,30.0,26.0,-100.00,ENE,67,5.0,-999.0,82,-99.99,,,-99.99,0.000000,,2013-04-08 11:00:00,
2013-04-08 07:43:00,30.0,26.0,-100.00,ENE,67,5.0,-999.0,82,-99.99,,,-99.99,0.000000,,2013-04-08 11:43:00,
2013-04-08 07:53:00,30.0,26.0,-100.00,ENE,67,5.0,-999.0,82,-99.99,,,-99.99,0.000000,,2013-04-08 11:53:00,
2013-04-08 08:00:00,31.0,26.0,-100.00,East,90,5.0,-999.0,83,-99.99,,,-99.99,27.840000,,2013-04-08 12:00:00,
2013-04-08 08:43:00,31.0,26.0,-100.00,East,90,5.0,-999.0,83,-99.99,,,-99.99,27.840000,,2013-04-08 12:43:00,
2013-04-08 08:53:00,31.0,26.0,-100.00,East,90,5.0,-999.0,83,-99.99,,,-99.99,27.840000,,2013-04-08 12:53:00,
2013-04-08 09:00:00,33.0,27.0,-100.00,East,90,5.0,-999.0,80,-99.99,,,-99.99,92.800003,,2013-04-08 13:00:00,
2013-04-08 09:43:00,33.0,27.0,-100.00,East,90,5.0,-999.0,80,-99.99,,,-99.99,92.800003,,2013-04-08 13:43:00,
2013-04-08 09:53:00,33.0,27.0,-100.00,East,90,5.0,-999.0,80,-99.99,,,-99.99,92.800003,,2013-04-08 13:53:00,
2013-04-08 10:00:00,36.0,29.0,-100.00,ESE,112,7.0,-999.0,76,-99.99,,,-99.99,136.880005,,2013-04-08 14:00:00,
2013-04-08 10:33:00,36.0,29.0,-100.00,ESE,112,7.0,-999.0,76,-99.99,,,-99.99,136.880005,,2013-04-08 14:33:00,
2013-04-08 10:43:00,36.0,29.0,-100.00,ESE,112,7.0,-999.0,76,-99.99,,,-99.99,136.880005,,2013-04-08 14:43:00,
2013-04-08 10:53:00,36.0,29.0,-100.00,ESE,112,7.0,-999.0,76,-99.99,,,-99.99,136.880005,,2013-04-08 14:53:00,
2013-04-08 11:00:00,38.0,30.0,-100.00,ESE,112,8.0,-999.0,74,-99.99,,,-99.99,178.639999,,2013-04-08 15:00:00,
2013-04-08 11:43:00,38.0,30.0,-100.00,ESE,112,8.0,-999.0,74,-99.99,,,-99.99,178.639999,,2013-04-08 15:43:00,
2013-04-08 11:53:00,38.0,30.0,-100.00,ESE,112,8.0,-999.0,74,-99.99,,,-99.99,178.639999,,2013-04-08 15:53:00,
2013-04-08 13:00:00,40.0,31.0,-100.00,ESE,112,7.0,-999.0,69,-99.99,,,-99.99,122.959999,,2013-04-08 17:00:00,
2013-04-08 13:45:00,40.0,31.0,-100.00,ESE,112,7.0,-999.0,69,-99.99,,,-99.99,122.959999,,2013-04-08 17:45:00,
2013-04-08 13:53:00,40.0,31.0,-100.00,ESE,112,7.0,-999.0,69,-99.99,,,-99.99,122.959999,,2013-04-08 17:53:00,
2013-04-08 14:00:00,39.0,34.0,-100.00,ENE,67,6.0,-999.0,80,0.03,,,-99.99,81.199997,,2013-04-08 18:00:00,
2013-04-08 14:42:00,39.0,34.0,-100.00,ENE,67,6.0,-999.0,80,0.03,,,-99.99,81.199997,,2013-04-08 18:42:00,
2013-04-08 14:53:00,39.0,34.0,-100.00,ENE,67,6.0,-999.0,80,0.03,,,-99.99,81.199997,,2013-04-08 18:53:00,
2013-04-08 15:00:00,39.0,35.0,-100.00,ENE,67,10.0,-999.0,87,0.04,,,-99.99,93.959999,,2013-04-08 19:00:00,
2013-04-08 15:43:00,39.0,35.0,-100.00,ENE,67,10.0,-999.0,87,0.04,,,-99.99,93.959999,,2013-04-08 19:43:00,
2013-04-08 15:53:00,39.0,35.0,-100.00,ENE,67,10.0,-999.0,87,0.04,,,-99.99,93.959999,,2013-04-08 19:53:00,
2013-04-08 16:00:00,39.0,35.0,-100.00,ENE,67,12.0,-999.0,87,0.02,,,-99.99,82.360001,,2013-04-08 20:00:00,
2013-04-08 16:43:00,39.0,35.0,-100.00,ENE,67,12.0,-999.0,87,0.02,,,-99.99,82.360001,,2013-04-08 20:43:00,
2013-04-08 16:52:00,39.0,35.0,-100.00,ENE,67,12.0,-999.0,87,0.02,,,-99.99,82.360001,,2013-04-08 20:52:00,
2013-04-08 17:00:00,39.0,36.0,-100.00,ENE,67,6.0,-999.0,89,0.05,,,-99.99,47.560001,,2013-04-08 21:00:00,
2013-04-08 17:43:00,39.0,36.0,-100.00,ENE,67,6.0,-999.0,89,0.05,,,-99.99,47.560001,,2013-04-08 21:43:00,
2013-04-08 17:53:00,39.0,36.0,-100.00,ENE,67,6.0,-999.0,89,0.05,,,-99.99,47.560001,,2013-04-08 21:53:00,
2013-04-08 19:00:00,38.0,36.0,-100.00,ENE,67,7.0,-999.0,91,0.01,,,-99.99,66.120003,,2013-04-08 23:00:00,
2013-04-08 19:43:00,38.0,36.0,-100.00,ENE,67,7.0,-999.0,91,0.01,,,-99.99,66.120003,,2013-04-08 23:43:00,
2013-04-08 19:52:00,38.0,36.0,-100.00,ENE,67,7.0,-999.0,91,0.01,,,-99.99,66.120003,,2013-04-08 23:52:00,
2013-04-08 21:00:00,37.0,35.0,-100.00,NE,45,4.0,-999.0,92,-99.99,,,-99.99,2.320000,,2013-04-09 01:00:00,
2013-04-08 21:42:00,37.0,35.0,-100.00,NE,45,4.0,-999.0,92,-99.99,,,-99.99,2.320000,,2013-04-09 01:42:00,
2013-04-08 21:53:00,37.0,35.0,-100.00,NE,45,4.0,-999.0,92,-99.99,,,-99.99,2.320000,,2013-04-09 01:53:00,
2013-04-08 22:00:00,36.0,34.0,-100.00,NE,45,3.0,-999.0,92,-99.99,,,-99.99,0.000000,,2013-04-09 02:00:00,
2013-04-08 22:44:00,36.0,34.0,-100.00,NE,45,3.0,-999.0,92,-99.99,,,-99.99,0.000000,,2013-04-09 02:44:00,
2013-04-08 22:52:00,36.0,34.0,-100.00,NE,45,3.0,-999.0,92,-99.99,,,-99.99,0.000000,,2013-04-09 02:52:00,
2013-04-08 23:00:00,36.0,34.0,-100.00,ESE,112,1.0,-999.0,92,-99.99,,,-99.99,0.000000,,2013-04-09 03:00:00,
2013-04-08 23:43:00,36.0,34.0,-100.00,ESE,112,1.0,-999.0,92,-99.99,,,-99.99,0.000000,,2013-04-09 03:43:00,
2013-04-08 23:53:00,36.0,34.0,-100.00,ESE,112,1.0,-999.0,92,-99.99,,,-99.99,0.000000,,2013-04-09 03:53:00,